George Washington, Virginia
Current Conditions -  °F | °C
As of 11:52 PM on Friday 24 Oct 2014 (Local Time) from KDCA Reporting Station
Scattered Clouds Scattered Clouds  
Wind Chill: 57°   Ceiling: Unl
Heat Index: 57°   Visibility: 10mi
Dew Point: 38°   Wind: 8mph
Humidity: 49%   Direction: 350°N
Pressure: 29.96"   Gusts: NA
Location:  38.8367°N, 77.0641°W
Report Text: KDCA 250352Z 35007KT 10SM SCT250 14/03 A2996 RMK AO2 SLP145 T01390033 $
Loading
Personal Weather Stations






























Interactive Weather Map
Tropical Storm Tracking
New forecast layout! Learn more

10-Day Weather Forecast

Advertisements
Track Severe Weather on mobile